createdAt,value
2018-11-20T00:05:19.939Z,7.3
2018-11-20T00:15:19.070Z,7.3
2018-11-20T00:25:18.279Z,7.4
2018-11-20T00:35:17.481Z,7.3
2018-11-20T00:45:16.688Z,7.3
2018-11-20T00:55:15.892Z,7.4
2018-11-20T01:05:15.102Z,7.4
2018-11-20T01:15:14.303Z,7.4
2018-11-20T01:25:13.508Z,7.4
2018-11-20T01:35:12.722Z,7.4
2018-11-20T01:45:11.918Z,7.4
2018-11-20T01:55:11.128Z,7.4
2018-11-20T02:05:10.331Z,7.4
2018-11-20T02:15:09.535Z,7.4
2018-11-20T02:25:08.751Z,7.4
2018-11-20T02:35:07.946Z,7.3
2018-11-20T02:45:07.159Z,7.1
2018-11-20T02:55:06.357Z,7.1
2018-11-20T03:05:05.565Z,7.2
2018-11-20T03:15:04.769Z,7.3
2018-11-20T03:25:03.975Z,7.4
2018-11-20T03:35:03.182Z,7.4
2018-11-20T03:45:02.378Z,7.6
2018-11-20T03:55:01.586Z,7.8
2018-11-20T04:05:00.796Z,7.9
2018-11-20T04:15:00.004Z,7.9
2018-11-20T04:24:59.211Z,7.9
2018-11-20T04:34:58.417Z,7.9
2018-11-20T04:44:57.619Z,7.9
2018-11-20T04:54:56.825Z,7.9
2018-11-20T05:04:56.039Z,7.9
2018-11-20T05:14:55.245Z,8
2018-11-20T05:24:54.449Z,8.1
2018-11-20T05:34:53.662Z,7.1
2018-11-20T05:44:52.870Z,5.8
2018-11-20T05:54:52.071Z,5.3
2018-11-20T06:04:51.283Z,5.2
2018-11-20T06:14:50.488Z,5.1
2018-11-20T06:24:49.699Z,5.1
2018-11-20T06:34:48.933Z,5.1
2018-11-20T06:44:48.102Z,5.3
2018-11-20T06:54:47.318Z,5.6
2018-11-20T07:04:46.527Z,5.6
2018-11-20T07:14:45.735Z,5.5
2018-11-20T07:24:45.022Z,5.6
2018-11-20T07:34:44.166Z,5.6
2018-11-20T07:44:43.364Z,5.6
2018-11-20T07:54:42.570Z,5.6
2018-11-20T08:04:41.770Z,5.7
2018-11-20T08:14:41.693Z,5.8
2018-11-20T08:24:40.897Z,5.9
2018-11-20T08:34:40.110Z,5.8
2018-11-20T08:44:39.307Z,5.8
2018-11-20T08:54:38.521Z,5.8
2018-11-20T09:04:37.722Z,5.8
2018-11-20T09:14:36.924Z,5.8
2018-11-20T09:24:36.156Z,5.9
2018-11-20T09:34:35.541Z,5.8
2018-11-20T09:44:34.576Z,5.9
2018-11-20T09:54:33.790Z,6.1
2018-11-20T10:04:32.991Z,6
2018-11-20T10:14:32.208Z,5.9
2018-11-20T10:24:31.435Z,6.1
2018-11-20T10:34:30.659Z,6.5
2018-11-20T10:44:29.817Z,6.8
2018-11-20T10:54:29.028Z,7.1
2018-11-20T11:04:28.309Z,7.2
2018-11-20T11:14:27.512Z,6.9
2018-11-20T11:24:26.656Z,7.1
2018-11-20T11:34:25.858Z,7.4
2018-11-20T11:44:25.067Z,7.4
2018-11-20T11:54:24.284Z,7.1
2018-11-20T12:04:23.482Z,7
2018-11-20T12:14:22.690Z,7.1
2018-11-20T12:24:21.899Z,7.3
2018-11-20T12:34:21.108Z,6.9
2018-11-20T12:44:21.471Z,7
2018-11-20T12:54:19.519Z,6.9
2018-11-20T13:04:18.728Z,6.9
2018-11-20T13:14:17.940Z,6.9
2018-11-20T13:24:17.143Z,6.6
2018-11-20T13:34:20.748Z,6.5
2018-11-20T13:44:15.563Z,6.3
2018-11-20T13:54:14.772Z,6.2
2018-11-20T14:04:13.973Z,5.8
2018-11-20T14:14:13.182Z,5.8
2018-11-20T14:24:12.392Z,5.8
2018-11-20T14:34:11.593Z,5.8
2018-11-20T14:44:10.805Z,5.7
2018-11-20T14:54:10.013Z,5.6
2018-11-20T15:04:09.215Z,5.7
2018-11-20T15:14:08.424Z,5.8
2018-11-20T15:24:07.631Z,5.6
2018-11-20T15:34:06.883Z,5.7
2018-11-20T15:44:06.044Z,5.6
2018-11-20T15:54:05.253Z,6.6
2018-11-20T16:04:04.465Z,7.3
2018-11-20T16:14:03.667Z,7.7
2018-11-20T16:24:02.878Z,8
2018-11-20T16:34:02.080Z,8.3
2018-11-20T16:44:01.290Z,8.6
2018-11-20T16:54:00.500Z,8.7
2018-11-20T17:03:59.705Z,8.6
2018-11-20T17:13:58.908Z,8.6
2018-11-20T17:23:58.117Z,8.6
2018-11-20T17:33:57.336Z,8.6
2018-11-20T17:43:56.538Z,8.5
2018-11-20T17:53:55.743Z,8.4
2018-11-20T18:03:54.975Z,8.6
2018-11-20T18:13:54.163Z,8.6
2018-11-20T18:23:53.377Z,8.7
2018-11-20T18:33:52.578Z,8.7
2018-11-20T18:43:51.786Z,8.6
2018-11-20T18:53:50.995Z,8.6
2018-11-20T19:03:50.206Z,8.6
2018-11-20T19:13:49.442Z,8.6
2018-11-20T19:23:48.633Z,8.6
2018-11-20T19:33:47.887Z,8.7
2018-11-20T19:53:46.278Z,8.8
2018-11-20T20:03:45.496Z,8.8
2018-11-20T20:13:44.693Z,8.8
2018-11-20T20:23:43.910Z,8.9
2018-11-20T20:33:43.119Z,8.9
2018-11-20T20:43:42.320Z,8.9
2018-11-20T20:53:41.525Z,8.9
2018-11-20T21:03:40.738Z,8.9
2018-11-20T21:13:39.954Z,9.1
2018-11-20T21:23:39.158Z,9.1
2018-11-20T21:33:38.359Z,9.1
2018-11-20T21:43:37.567Z,9
2018-11-20T21:53:36.777Z,9
2018-11-20T22:03:35.985Z,9.1
2018-11-20T22:13:35.197Z,9.1
2018-11-20T22:23:34.404Z,9.1
2018-11-20T22:33:33.614Z,9.3
2018-11-20T22:43:32.822Z,9.3
2018-11-20T22:53:32.029Z,9.3
2018-11-20T23:03:31.241Z,9.3
2018-11-20T23:13:30.446Z,9.3
2018-11-20T23:23:29.651Z,9.3
2018-11-20T23:33:28.862Z,9.2
2018-11-20T23:43:28.066Z,9.2
2018-11-20T23:53:27.270Z,9.1
